Main page
METAR-TAF:

METAR-TAF

Airports :

Hannibal Regional Airport

Hannibal, Missouri, United States

latitude: 39-43-31N, longitude: 091-26-38W, elevation: 768 ft

Current weather observation

The report was made 21 minutes ago, at 13:15 UTC
Calm wind
Temperature 68°F
Humidity 100%
Pressure 29.89 in. Hg
Visibility: 4 miles
Overcast at a height of 500 ft
mist

METAR: KHAE 281315Z AUTO 00000KT 4SM BR OVC005 20/20 A2989 RMK AO2

Time: 08:36 (13:36 UTC)


TAF: missing

Weather observations and forecasts of more than 4000 airports (METAR and TAF reports).

The available stations are represented by yellow and red dots on the map.

Hover mouse over dot to see the name of the station.

Then click to see weather observations and forecasts.

To change the map : click on the green buttons with a black cross to zoom in, on the green button with a dash to zoom out, or on the green arrows for adjacent maps.


METAR-TAF: